createdAt,value
2024-03-06T00:00:50.882Z,62.32
2024-03-06T00:03:39.169Z,62.31
2024-03-06T00:06:07.779Z,62.00
2024-03-06T00:08:36.181Z,62.19
2024-03-06T00:11:04.675Z,62.38
2024-03-06T00:13:33.099Z,62.29
2024-03-06T00:16:01.402Z,62.35
2024-03-06T00:18:29.802Z,62.23
2024-03-06T00:20:58.137Z,62.17
2024-03-06T00:23:27.348Z,62.28
2024-03-06T00:25:55.849Z,62.22
2024-03-06T00:28:24.251Z,62.24
2024-03-06T00:30:52.589Z,62.25
2024-03-06T00:33:20.990Z,62.33
2024-03-06T00:35:49.418Z,62.39
2024-03-06T00:38:17.798Z,62.58
2024-03-06T00:40:46.259Z,62.40
2024-03-06T00:43:14.799Z,62.54
2024-03-06T00:45:43.844Z,62.47
2024-03-06T00:48:12.256Z,62.43
2024-03-06T00:50:40.975Z,62.50
2024-03-06T00:53:09.429Z,62.37
2024-03-06T00:55:38.217Z,62.13
2024-03-06T00:58:07.963Z,62.03
2024-03-06T01:00:36.508Z,62.22
2024-03-06T01:03:04.964Z,62.43
2024-03-06T01:05:33.750Z,62.78
2024-03-06T01:08:02.208Z,63.01
2024-03-06T01:10:30.649Z,62.92
2024-03-06T01:12:59.093Z,62.70
2024-03-06T01:15:27.455Z,62.80
2024-03-06T01:17:55.848Z,62.94
2024-03-06T01:20:24.331Z,63.57
2024-03-06T01:22:52.755Z,63.90
2024-03-06T01:25:21.924Z,63.66
2024-03-06T01:27:50.483Z,64.09
2024-03-06T01:30:18.887Z,64.54
2024-03-06T01:32:47.587Z,64.45
2024-03-06T01:35:16.244Z,64.65
2024-03-06T01:37:44.623Z,64.59
2024-03-06T01:40:13.664Z,64.79
2024-03-06T01:42:42.066Z,65.50
2024-03-06T01:45:10.901Z,65.66
2024-03-06T01:47:39.292Z,65.66
2024-03-06T01:50:10.599Z,65.45
2024-03-06T01:52:41.289Z,65.36
2024-03-06T01:55:11.574Z,66.33
2024-03-06T01:57:41.599Z,66.32
2024-03-06T02:00:14.989Z,66.26
2024-03-06T02:02:44.805Z,66.26
2024-03-06T02:05:14.083Z,65.89
2024-03-06T02:07:46.052Z,65.90
2024-03-06T02:10:14.782Z,65.63
2024-03-06T02:12:43.971Z,65.61
2024-03-06T02:15:13.896Z,65.89
2024-03-06T02:17:43.446Z,66.08
2024-03-06T02:20:13.986Z,65.85
2024-03-06T02:22:42.626Z,65.63
2024-03-06T02:25:12.288Z,66.81
2024-03-06T02:27:40.767Z,67.03
2024-03-06T02:30:09.482Z,66.92
2024-03-06T02:32:38.026Z,66.62
2024-03-06T02:35:10.104Z,67.11
2024-03-06T02:37:39.874Z,67.63
2024-03-06T02:40:11.199Z,68.53
2024-03-06T02:42:40.311Z,68.77
2024-03-06T02:45:10.056Z,68.98
2024-03-06T02:47:38.519Z,69.19
2024-03-06T02:50:08.883Z,69.39
2024-03-06T02:52:37.714Z,69.65
2024-03-06T02:55:06.794Z,69.43
2024-03-06T02:57:35.172Z,69.54
2024-03-06T03:00:05.893Z,69.46
2024-03-06T03:02:34.424Z,69.54
2024-03-06T03:05:02.951Z,69.19
2024-03-06T03:07:31.430Z,69.21
2024-03-06T03:09:59.769Z,69.00
2024-03-06T03:12:28.127Z,69.09
2024-03-06T03:14:56.529Z,69.06
2024-03-06T03:17:24.939Z,69.21
2024-03-06T03:19:53.913Z,68.76
2024-03-06T03:22:22.336Z,68.61
2024-03-06T03:24:50.709Z,68.14
2024-03-06T03:27:19.348Z,68.42
2024-03-06T03:29:47.722Z,68.88
2024-03-06T03:32:17.912Z,68.82
2024-03-06T03:34:46.445Z,69.04
2024-03-06T03:37:14.814Z,68.63
2024-03-06T03:39:45.335Z,68.27
2024-03-06T03:42:13.671Z,68.60
2024-03-06T03:44:41.993Z,68.38
2024-03-06T03:47:10.375Z,68.22
2024-03-06T03:49:38.716Z,68.66
2024-03-06T03:52:07.908Z,69.37
2024-03-06T03:54:36.548Z,69.05
2024-03-06T03:57:05.121Z,68.98
2024-03-06T03:59:33.444Z,68.78
2024-03-06T04:02:01.903Z,69.22
2024-03-06T04:04:30.546Z,69.02
2024-03-06T04:07:00.855Z,69.18
2024-03-06T04:09:29.533Z,68.99
2024-03-06T04:11:57.981Z,69.36
2024-03-06T04:14:27.930Z,69.70
2024-03-06T04:16:56.357Z,70.57
2024-03-06T04:19:24.786Z,70.97
2024-03-06T04:21:53.173Z,70.55
2024-03-06T04:24:21.603Z,71.51
2024-03-06T04:26:49.965Z,71.53
2024-03-06T04:29:18.926Z,71.17
2024-03-06T04:31:47.329Z,70.97
2024-03-06T04:34:15.938Z,70.83
2024-03-06T04:36:44.239Z,70.47
2024-03-06T04:39:13.338Z,70.61
2024-03-06T04:41:41.726Z,70.73
2024-03-06T04:44:10.059Z,70.54
2024-03-06T04:46:38.464Z,70.80
2024-03-06T04:49:06.717Z,70.52
2024-03-06T04:51:35.111Z,70.55
2024-03-06T04:54:04.623Z,70.45
2024-03-06T04:56:32.942Z,70.48
2024-03-06T04:59:04.452Z,70.70
2024-03-06T05:01:33.116Z,70.71
2024-03-06T05:59:17.719Z,70.29
2024-03-06T06:01:46.771Z,70.33
2024-03-06T06:04:15.679Z,70.48
2024-03-06T06:06:44.127Z,70.65
2024-03-06T06:09:17.362Z,70.58
2024-03-06T06:11:46.408Z,70.48
2024-03-06T06:14:15.060Z,70.11
2024-03-06T06:16:44.085Z,70.53
2024-03-06T06:19:12.600Z,70.46
2024-03-06T06:21:42.477Z,70.38
2024-03-06T06:24:10.938Z,70.27
2024-03-06T06:26:39.356Z,69.91
2024-03-06T06:29:07.799Z,69.69
2024-03-06T06:31:36.264Z,69.46
2024-03-06T06:34:04.650Z,69.00
2024-03-06T06:36:33.033Z,68.88
2024-03-06T06:39:03.961Z,68.60
2024-03-06T06:41:34.487Z,68.71
2024-03-06T06:44:04.106Z,68.59
2024-03-06T06:46:32.856Z,68.53
2024-03-06T06:49:01.320Z,68.68
2024-03-06T06:51:29.712Z,68.57
2024-03-06T06:54:00.616Z,68.29
2024-03-06T06:56:30.171Z,68.12
2024-03-06T06:58:58.673Z,67.64
2024-03-06T07:01:27.133Z,67.21
2024-03-06T07:03:55.560Z,67.40
2024-03-06T07:06:24.017Z,67.29
2024-03-06T07:08:52.438Z,67.27
2024-03-06T07:11:21.724Z,67.31
2024-03-06T07:13:52.825Z,67.11
2024-03-06T07:16:28.249Z,67.04
2024-03-06T07:18:56.599Z,67.09
2024-03-06T07:21:25.416Z,67.13
2024-03-06T07:23:53.765Z,67.62
2024-03-06T07:26:22.628Z,66.89
2024-03-06T07:28:51.049Z,65.77
2024-03-06T07:31:20.122Z,65.00
2024-03-06T07:33:53.714Z,64.21
2024-03-06T07:36:25.383Z,63.52
2024-03-06T07:38:53.797Z,62.64
2024-03-06T07:41:22.240Z,63.12
2024-03-06T07:43:50.591Z,62.82
2024-03-06T07:46:18.953Z,62.14
2024-03-06T07:48:47.462Z,62.32
2024-03-06T07:51:15.821Z,62.50
2024-03-06T07:53:44.245Z,62.32
2024-03-06T07:56:14.933Z,62.30
2024-03-06T07:58:42.241Z,62.91
2024-03-06T08:01:09.630Z,63.16
2024-03-06T08:03:54.893Z,63.89
2024-03-06T08:06:22.358Z,63.84
2024-03-06T08:08:49.927Z,63.88
2024-03-06T08:11:17.596Z,64.24
2024-03-06T08:13:45.232Z,64.31
2024-03-06T08:16:12.625Z,64.71
2024-03-06T08:18:40.022Z,65.23
2024-03-06T08:21:08.180Z,65.53
2024-03-06T08:23:35.574Z,65.93
2024-03-06T08:26:03.151Z,66.55
2024-03-06T08:28:30.470Z,66.13
2024-03-06T08:30:58.391Z,67.41
2024-03-06T08:33:26.443Z,67.31
2024-03-06T08:35:54.224Z,67.67
2024-03-06T08:38:21.727Z,67.56
2024-03-06T08:40:50.087Z,67.97
2024-03-06T08:43:18.090Z,67.55
2024-03-06T08:45:45.441Z,67.34
2024-03-06T08:48:13.072Z,66.73
2024-03-06T08:50:40.935Z,66.70
2024-03-06T08:53:10.694Z,66.37
2024-03-06T08:55:38.413Z,66.02
2024-03-06T08:58:05.853Z,65.83
2024-03-06T09:00:33.440Z,65.92
2024-03-06T09:03:01.516Z,65.77
2024-03-06T09:05:28.971Z,65.89
2024-03-06T09:08:01.333Z,65.49
2024-03-06T09:10:29.999Z,65.11
2024-03-06T09:12:57.407Z,64.81
2024-03-06T09:15:25.661Z,64.06
2024-03-06T09:17:53.319Z,63.87
2024-03-06T09:20:21.497Z,63.91
2024-03-06T09:22:49.318Z,64.14
2024-03-06T09:25:17.012Z,64.38
2024-03-06T09:27:45.070Z,64.33
2024-03-06T09:30:14.859Z,64.40
2024-03-06T09:32:43.386Z,64.19
2024-03-06T09:35:11.301Z,64.00
2024-03-06T09:37:38.665Z,64.01
2024-03-06T09:40:09.046Z,64.02
2024-03-06T09:42:36.465Z,63.56
2024-03-06T09:45:04.066Z,63.25
2024-03-06T09:47:33.981Z,63.01
2024-03-06T09:50:04.484Z,63.01
2024-03-06T09:52:33.975Z,62.76
2024-03-06T10:01:25.975Z,62.28
2024-03-06T10:03:53.656Z,61.83
2024-03-06T10:06:21.851Z,61.59
2024-03-06T10:08:50.655Z,61.37
2024-03-06T10:11:19.522Z,60.89
2024-03-06T10:13:46.913Z,60.97
2024-03-06T10:16:15.643Z,60.74
2024-03-06T10:18:43.413Z,60.90
2024-03-06T10:21:10.894Z,61.10
2024-03-06T10:23:38.795Z,60.79
2024-03-06T10:33:57.187Z,60.98
2024-03-06T10:36:28.829Z,60.82
2024-03-06T10:39:01.216Z,61.41
2024-03-06T10:41:34.216Z,61.39
2024-03-06T10:44:03.248Z,61.31
2024-03-06T10:46:32.673Z,61.30
2024-03-06T10:49:01.598Z,61.07
2024-03-06T10:51:31.224Z,61.36
2024-03-06T10:54:00.156Z,61.42
2024-03-06T10:56:27.635Z,61.55
2024-03-06T10:58:58.263Z,61.46
2024-03-06T11:01:26.150Z,61.91
2024-03-06T11:03:53.780Z,62.11
2024-03-06T11:06:21.156Z,62.03
2024-03-06T11:08:49.843Z,62.79
2024-03-06T11:11:25.239Z,62.88
2024-03-06T11:13:59.802Z,62.71
2024-03-06T11:16:35.268Z,62.84
2024-03-06T11:19:11.247Z,62.73
2024-03-06T11:21:49.110Z,62.47
2024-03-06T11:24:33.572Z,62.22
2024-03-06T11:27:03.041Z,62.07
2024-03-06T11:29:51.236Z,62.25
2024-03-06T11:32:19.438Z,62.13
2024-03-06T11:34:46.913Z,62.49
2024-03-06T11:37:14.741Z,62.09
2024-03-06T11:39:45.430Z,62.16
2024-03-06T11:42:14.920Z,61.97
2024-03-06T11:44:58.784Z,61.65
2024-03-06T11:47:26.442Z,61.93
2024-03-06T11:56:45.528Z,61.95
2024-03-06T11:59:13.089Z,61.85
2024-03-06T12:01:42.145Z,61.93
2024-03-06T12:04:09.651Z,61.84
2024-03-06T12:06:37.149Z,61.86
2024-03-06T12:09:05.105Z,62.27
2024-03-06T12:11:32.808Z,62.21
2024-03-06T12:14:00.526Z,61.83
2024-03-06T12:16:27.855Z,62.01
2024-03-06T12:18:59.225Z,61.85
2024-03-06T12:21:34.069Z,61.61
2024-03-06T12:24:11.179Z,61.60
2024-03-06T12:26:39.035Z,61.83
2024-03-06T12:29:11.257Z,62.15
2024-03-06T12:31:43.564Z,62.72
2024-03-06T12:34:18.648Z,64.94
2024-03-06T12:36:47.227Z,67.28
2024-03-06T12:39:19.518Z,68.33
2024-03-06T12:41:47.021Z,69.50
2024-03-06T12:50:38.733Z,73.47
2024-03-06T12:59:37.491Z,77.67
2024-03-06T13:02:05.389Z,78.53
2024-03-06T13:04:32.907Z,79.16
2024-03-06T13:07:00.365Z,80.38
2024-03-06T13:09:27.736Z,81.16
2024-03-06T13:11:55.842Z,81.34
2024-03-06T13:14:23.647Z,82.93
2024-03-06T13:16:51.113Z,83.65
2024-03-06T13:19:18.501Z,84.05
2024-03-06T13:21:45.821Z,84.72
2024-03-06T13:24:13.192Z,85.03
2024-03-06T13:26:41.679Z,85.21
2024-03-06T13:29:09.282Z,86.24
2024-03-06T13:31:37.452Z,87.07
2024-03-06T13:34:08.934Z,88.07
2024-03-06T13:36:36.353Z,88.22
2024-03-06T13:39:03.796Z,88.62
2024-03-06T13:41:31.213Z,89.03
2024-03-06T13:43:58.736Z,88.80
2024-03-06T13:46:26.125Z,88.77
2024-03-06T13:48:53.513Z,88.64
2024-03-06T13:51:20.964Z,88.81
2024-03-06T13:53:49.267Z,88.22
2024-03-06T13:56:16.944Z,88.32
2024-03-06T13:58:44.490Z,88.41
2024-03-06T14:01:16.776Z,89.01
2024-03-06T14:03:50.670Z,89.61
2024-03-06T14:06:23.410Z,89.87
2024-03-06T14:08:50.917Z,90.10
2024-03-06T14:11:20.175Z,90.19
2024-03-06T14:13:47.777Z,89.88
2024-03-06T14:16:15.188Z,90.02
2024-03-06T14:18:42.751Z,90.01
2024-03-06T14:21:10.565Z,90.02
2024-03-06T14:23:37.948Z,89.88
2024-03-06T14:26:05.546Z,89.66
2024-03-06T14:28:32.960Z,89.49
2024-03-06T14:31:01.392Z,89.58
2024-03-06T14:33:28.754Z,89.41
2024-03-06T14:35:56.684Z,89.02
2024-03-06T14:38:24.235Z,88.79
2024-03-06T14:40:51.678Z,89.33
2024-03-06T14:43:19.032Z,89.44
2024-03-06T14:45:47.136Z,89.54
2024-03-06T14:48:14.568Z,89.46
2024-03-06T14:50:42.157Z,89.63
2024-03-06T14:53:09.656Z,89.44
2024-03-06T14:55:37.148Z,89.42
2024-03-06T14:58:05.747Z,88.87
2024-03-06T15:00:33.222Z,89.11
2024-03-06T15:03:21.517Z,89.06
2024-03-06T15:05:49.262Z,89.24
2024-03-06T15:08:31.552Z,89.05
2024-03-06T15:10:59.119Z,88.58
2024-03-06T15:13:26.749Z,88.06
2024-03-06T15:15:55.007Z,87.54
2024-03-06T15:18:22.710Z,87.07
2024-03-06T15:20:56.516Z,86.61
2024-03-06T15:23:24.057Z,86.83
2024-03-06T15:25:52.034Z,86.94
2024-03-06T15:28:19.371Z,87.87
2024-03-06T15:30:46.829Z,89.20
2024-03-06T15:33:14.372Z,89.61
2024-03-06T15:35:42.023Z,89.39
2024-03-06T15:38:10.260Z,89.05
2024-03-06T15:40:37.665Z,89.76
2024-03-06T15:43:05.093Z,90.79
2024-03-06T15:45:32.741Z,90.94
2024-03-06T15:48:00.181Z,90.35
2024-03-06T15:50:28.061Z,90.01
2024-03-06T15:53:11.127Z,90.21
2024-03-06T15:55:39.176Z,90.63
2024-03-06T15:58:06.801Z,90.48
2024-03-06T16:00:34.288Z,90.23
2024-03-06T16:03:01.791Z,90.55
2024-03-06T16:05:29.587Z,90.45
2024-03-06T16:08:05.445Z,90.43
2024-03-06T16:10:36.037Z,90.35
2024-03-06T16:13:03.646Z,90.66
2024-03-06T16:15:31.624Z,90.85
2024-03-06T16:17:59.214Z,91.07
2024-03-06T16:20:27.160Z,90.58
2024-03-06T16:22:54.567Z,90.49
2024-03-06T16:25:22.383Z,89.95
2024-03-06T16:34:04.654Z,88.61
2024-03-06T16:36:32.145Z,88.41
2024-03-06T16:38:59.578Z,88.20
2024-03-06T16:41:27.438Z,87.93
2024-03-06T16:43:55.001Z,87.85
2024-03-06T16:46:22.368Z,87.90
2024-03-06T16:48:49.919Z,87.70
2024-03-06T16:51:21.316Z,87.89
2024-03-06T16:53:48.848Z,87.45
2024-03-06T16:56:16.429Z,87.38
2024-03-06T16:58:43.785Z,87.21
2024-03-06T17:01:11.621Z,87.01
2024-03-06T17:03:39.098Z,86.58
2024-03-06T17:06:07.846Z,86.22
2024-03-06T17:08:36.906Z,86.25
2024-03-06T17:11:05.604Z,86.07
2024-03-06T17:13:36.534Z,86.35
2024-03-06T17:16:08.990Z,86.27
2024-03-06T17:18:38.572Z,85.92
2024-03-06T17:21:10.098Z,85.92
2024-03-06T17:23:55.399Z,85.69
2024-03-06T17:26:24.084Z,85.63
2024-03-06T17:28:53.026Z,86.12
2024-03-06T17:31:21.518Z,86.45
2024-03-06T17:33:49.960Z,86.77
2024-03-06T17:36:18.746Z,86.87
2024-03-06T17:38:48.334Z,86.60
2024-03-06T17:41:18.843Z,86.34
2024-03-06T17:43:47.487Z,86.24
2024-03-06T17:46:16.066Z,86.20
2024-03-06T17:48:45.133Z,86.05
2024-03-06T17:51:16.209Z,85.64
2024-03-06T17:53:47.356Z,85.47
2024-03-06T17:56:30.449Z,85.10
2024-03-06T17:58:58.953Z,85.07
2024-03-06T18:01:27.520Z,84.68
2024-03-06T18:03:56.124Z,84.87
2024-03-06T18:06:26.046Z,85.39
2024-03-06T18:08:54.704Z,85.24
2024-03-06T18:11:23.332Z,85.52
2024-03-06T18:13:51.881Z,85.13
2024-03-06T18:16:20.237Z,85.15
2024-03-06T18:18:48.685Z,85.25
2024-03-06T18:21:17.164Z,84.87
2024-03-06T18:23:45.641Z,84.49
2024-03-06T18:26:14.161Z,84.36
2024-03-06T18:28:42.701Z,84.53
2024-03-06T18:31:11.084Z,84.90
2024-03-06T18:33:39.686Z,85.32
2024-03-06T18:36:08.658Z,84.79
2024-03-06T18:38:39.083Z,84.91
2024-03-06T18:41:07.687Z,85.10
2024-03-06T18:43:36.280Z,85.04
2024-03-06T18:46:04.743Z,85.48
2024-03-06T18:48:33.184Z,85.20
2024-03-06T18:51:02.048Z,85.32
2024-03-06T18:53:30.637Z,85.75
2024-03-06T18:55:59.216Z,85.67
2024-03-06T18:58:29.089Z,85.77
2024-03-06T19:00:57.642Z,86.08
2024-03-06T19:03:26.091Z,86.78
2024-03-06T19:05:55.261Z,86.22
2024-03-06T19:08:24.210Z,85.62
2024-03-06T19:10:52.746Z,84.81
2024-03-06T19:13:21.245Z,85.67
2024-03-06T19:15:49.714Z,85.81
2024-03-06T19:18:18.248Z,86.17
2024-03-06T19:20:47.008Z,86.62
2024-03-06T19:23:15.823Z,86.90
2024-03-06T19:25:44.250Z,87.10
2024-03-06T19:28:13.296Z,86.90
2024-03-06T19:30:41.658Z,87.61
2024-03-06T19:33:23.865Z,87.22
2024-03-06T19:35:52.563Z,87.38
2024-03-06T19:38:21.052Z,86.43
2024-03-06T19:40:51.693Z,86.44
2024-03-06T19:43:20.103Z,85.93
2024-03-06T19:45:48.543Z,85.61
2024-03-06T19:48:18.544Z,86.09
2024-03-06T19:50:47.714Z,86.43
2024-03-06T19:53:17.011Z,86.57
2024-03-06T19:55:46.233Z,86.57
2024-03-06T19:58:14.963Z,86.62
2024-03-06T20:00:43.476Z,86.79
2024-03-06T20:03:11.871Z,86.68
2024-03-06T20:05:40.727Z,87.39
2024-03-06T20:08:09.230Z,87.05
2024-03-06T20:10:38.205Z,87.02
2024-03-06T20:13:06.934Z,86.61
2024-03-06T20:15:38.743Z,86.76
2024-03-06T20:18:07.545Z,87.46
2024-03-06T20:20:36.190Z,87.66
2024-03-06T20:23:13.758Z,88.14
2024-03-06T20:25:43.947Z,87.65
2024-03-06T20:28:12.332Z,87.05
2024-03-06T20:30:44.155Z,87.16
2024-03-06T20:33:13.369Z,88.19
2024-03-06T20:35:42.045Z,88.86
2024-03-06T20:38:16.650Z,88.91
2024-03-06T20:40:48.261Z,89.18
2024-03-06T20:43:17.686Z,89.68
2024-03-06T20:45:48.992Z,90.14
2024-03-06T20:48:17.519Z,90.00
2024-03-06T20:50:46.109Z,90.38
2024-03-06T20:53:14.649Z,90.05
2024-03-06T20:55:47.191Z,89.67
2024-03-06T20:58:15.701Z,88.97
2024-03-06T21:00:44.872Z,89.02
2024-03-06T21:03:17.421Z,88.82
2024-03-06T21:05:46.260Z,89.73
2024-03-06T21:08:14.864Z,90.14
2024-03-06T21:10:45.836Z,89.37
2024-03-06T21:13:14.688Z,89.27
2024-03-06T21:15:43.207Z,88.95
2024-03-06T21:18:12.952Z,88.56
2024-03-06T21:20:41.659Z,88.78
2024-03-06T21:23:10.166Z,89.11
2024-03-06T21:25:38.709Z,89.03
2024-03-06T21:28:08.578Z,89.13
2024-03-06T21:30:37.001Z,88.73
2024-03-06T21:33:06.953Z,88.73
2024-03-06T21:35:35.563Z,89.58
2024-03-06T21:38:04.653Z,90.74
2024-03-06T21:40:33.054Z,90.36
2024-03-06T21:43:04.978Z,90.34
2024-03-06T21:45:36.644Z,90.11
2024-03-06T21:48:05.748Z,90.93
2024-03-06T21:50:34.701Z,90.69
2024-03-06T21:53:03.450Z,91.25
2024-03-06T21:55:34.295Z,91.31
2024-03-06T21:58:02.620Z,91.66
2024-03-06T22:00:32.797Z,90.39
2024-03-06T22:03:01.561Z,89.77
2024-03-06T22:05:43.756Z,90.39
2024-03-06T22:08:12.275Z,90.86
2024-03-06T22:10:58.391Z,91.79
2024-03-06T22:13:26.821Z,90.87
2024-03-06T22:15:55.234Z,90.76
2024-03-06T22:18:23.615Z,92.34
2024-03-06T22:21:06.928Z,93.26
2024-03-06T22:23:35.946Z,93.57
2024-03-06T22:26:04.764Z,92.02
2024-03-06T22:28:33.140Z,91.47
2024-03-06T22:31:01.907Z,92.32
2024-03-06T22:33:44.697Z,92.35
2024-03-06T22:36:17.524Z,91.82
2024-03-06T22:38:46.694Z,91.97
2024-03-06T22:41:24.079Z,92.09
2024-03-06T22:43:52.577Z,90.93
2024-03-06T22:46:22.960Z,90.92
2024-03-06T22:49:05.210Z,90.34
2024-03-06T22:51:33.530Z,90.38
2024-03-06T22:54:02.295Z,90.78
2024-03-06T22:56:32.898Z,90.59
2024-03-06T22:59:01.953Z,90.45
2024-03-06T23:01:30.370Z,90.39
2024-03-06T23:03:58.704Z,90.65
2024-03-06T23:06:29.323Z,90.34
2024-03-06T23:08:57.835Z,90.25
2024-03-06T23:11:26.365Z,90.83
2024-03-06T23:13:54.881Z,90.46
2024-03-06T23:16:23.281Z,89.95
2024-03-06T23:19:05.505Z,90.21
2024-03-06T23:21:36.707Z,90.22
2024-03-06T23:24:05.323Z,91.13
2024-03-06T23:26:33.843Z,90.99
2024-03-06T23:29:02.464Z,91.14
2024-03-06T23:31:30.968Z,90.23
2024-03-06T23:33:59.387Z,90.50
2024-03-06T23:36:27.753Z,90.38
2024-03-06T23:38:56.155Z,90.22
2024-03-06T23:41:24.688Z,90.55
2024-03-06T23:44:06.956Z,91.32
2024-03-06T23:46:49.366Z,91.21
2024-03-06T23:49:20.615Z,91.55
2024-03-06T23:51:50.308Z,91.81
2024-03-06T23:54:20.665Z,92.14
2024-03-06T23:56:51.227Z,92.61
2024-03-06T23:59:20.415Z,92.17
